EIA170X EFHK-ESSA
Flight info
| Callsign | EIA170X |
|---|---|
| Flight time | N/A |
| Altitude | 30000 |
| Route | ADIVO Y365 POGOK DCT RUNGA N872 XILAN |
| Aircraft | A320/M-SDE3FGHIRWY/LB1 |
Departure
| Time | N/A |
|---|---|
| Airport | Helsinki Vantaa Airport (EFHK) |
Arrival
| Time | 2026-05-04 16:39 |
|---|---|
| Airport | Stockholm-Arlanda Airport (ESSA) |
| Time | Latitude | Longitude | Altitude | Speed | Heading |
|---|---|---|---|---|---|
| 2026-05-04 15:59 | 60.27355 | 23.75987 | 20560 ft | 344 kts | 256° |
| 2026-05-04 16:00 | 60.26841 | 23.71277 | 21114 ft | 345 kts | 256° |
| 2026-05-04 16:00 | 60.26318 | 23.66523 | 21651 ft | 348 kts | 256° |
| 2026-05-04 16:00 | 60.25793 | 23.61754 | 22181 ft | 350 kts | 256° |
| 2026-05-04 16:00 | 60.25264 | 23.56956 | 22701 ft | 352 kts | 256° |
| 2026-05-04 16:01 | 60.24736 | 23.52193 | 23191 ft | 354 kts | 256° |
| 2026-05-04 16:01 | 60.24197 | 23.47344 | 23610 ft | 356 kts | 256° |
| 2026-05-04 16:01 | 60.23653 | 23.42462 | 24035 ft | 358 kts | 256° |
| 2026-05-04 16:01 | 60.23103 | 23.37543 | 24435 ft | 360 kts | 256° |
| 2026-05-04 16:02 | 60.22549 | 23.32609 | 24888 ft | 362 kts | 256° |
| 2026-05-04 16:02 | 60.21993 | 23.27662 | 25301 ft | 363 kts | 256° |
| 2026-05-04 16:02 | 60.20864 | 23.17698 | 26067 ft | 368 kts | 255° |
| 2026-05-04 16:03 | 60.20287 | 23.12661 | 26413 ft | 370 kts | 255° |
| 2026-05-04 16:03 | 60.19711 | 23.07670 | 26731 ft | 373 kts | 256° |
| 2026-05-04 16:03 | 60.19123 | 23.02574 | 27104 ft | 375 kts | 256° |
| 2026-05-04 16:03 | 60.18534 | 22.97463 | 27474 ft | 377 kts | 256° |
| 2026-05-04 16:04 | 60.17940 | 22.92314 | 27846 ft | 379 kts | 256° |
| 2026-05-04 16:04 | 60.16734 | 22.81945 | 28557 ft | 383 kts | 255° |
| 2026-05-04 16:04 | 60.16121 | 22.76726 | 28893 ft | 385 kts | 255° |
| 2026-05-04 16:05 | 60.15502 | 22.71493 | 29213 ft | 386 kts | 255° |
| 2026-05-04 16:05 | 60.14876 | 22.66233 | 29527 ft | 388 kts | 255° |
| 2026-05-04 16:05 | 60.13630 | 22.55749 | 29694 ft | 389 kts | 255° |
| 2026-05-04 16:06 | 60.13005 | 22.50473 | 29721 ft | 389 kts | 256° |
| 2026-05-04 16:07 | 60.10474 | 22.29423 | 29691 ft | 388 kts | 255° |
| 2026-05-04 16:08 | 60.07895 | 22.08399 | 29692 ft | 388 kts | 255° |
| 2026-05-04 16:09 | 60.04643 | 21.82212 | 29671 ft | 387 kts | 255° |
| 2026-05-04 16:10 | 60.02017 | 21.61392 | 29713 ft | 386 kts | 255° |
| 2026-05-04 16:11 | 59.99350 | 21.40616 | 29700 ft | 385 kts | 255° |
| 2026-05-04 16:12 | 59.95078 | 21.09745 | 29680 ft | 384 kts | 253° |
| 2026-05-04 16:13 | 59.92189 | 20.89299 | 29709 ft | 384 kts | 254° |
| 2026-05-04 16:14 | 59.89346 | 20.69429 | 29672 ft | 355 kts | 253° |
| 2026-05-04 16:15 | 59.87366 | 20.55734 | 28627 ft | 339 kts | 253° |
| 2026-05-04 16:16 | 59.86046 | 20.46674 | 27261 ft | 339 kts | 253° |
| 2026-05-04 16:16 | 59.84086 | 20.33309 | 25588 ft | 331 kts | 253° |
| 2026-05-04 16:17 | 59.82800 | 20.24586 | 24545 ft | 326 kts | 253° |
| 2026-05-04 16:18 | 59.80934 | 20.11944 | 23468 ft | 307 kts | 252° |
| 2026-05-04 16:18 | 59.80338 | 20.07938 | 23031 ft | 305 kts | 252° |
| 2026-05-04 16:19 | 59.78532 | 19.95905 | 21482 ft | 300 kts | 253° |
| 2026-05-04 16:19 | 59.77347 | 19.88030 | 20573 ft | 296 kts | 253° |
| 2026-05-04 16:20 | 59.75579 | 19.76432 | 19302 ft | 290 kts | 253° |
| 2026-05-04 16:20 | 59.74471 | 19.68784 | 18458 ft | 287 kts | 259° |
| 2026-05-04 16:21 | 59.74902 | 19.57053 | 17558 ft | 280 kts | 272° |
| 2026-05-04 16:22 | 59.75329 | 19.49465 | 16951 ft | 274 kts | 272° |
| 2026-05-04 16:22 | 59.75945 | 19.38293 | 15922 ft | 271 kts | 272° |
| 2026-05-04 16:23 | 59.76543 | 19.27176 | 14778 ft | 269 kts | 272° |
| 2026-05-04 16:24 | 59.77331 | 19.12420 | 13231 ft | 269 kts | 273° |
| 2026-05-04 16:25 | 59.77718 | 19.04985 | 12263 ft | 272 kts | 273° |
| 2026-05-04 16:26 | 59.78472 | 18.90270 | 10797 ft | 264 kts | 274° |
| 2026-05-04 16:26 | 59.79014 | 18.79563 | 9683 ft | 249 kts | 275° |
| 2026-05-04 16:27 | 59.79339 | 18.73020 | 8898 ft | 229 kts | 274° |
| 2026-05-04 16:28 | 59.79791 | 18.63782 | 7724 ft | 224 kts | 274° |
| 2026-05-04 16:28 | 59.80242 | 18.54549 | 6691 ft | 221 kts | 274° |
| 2026-05-04 16:29 | 59.80781 | 18.43245 | 5543 ft | 196 kts | 273° |
| 2026-05-04 16:30 | 59.81140 | 18.35621 | 4798 ft | 174 kts | 273° |
| 2026-05-04 16:31 | 59.81355 | 18.30959 | 4302 ft | 166 kts | 272° |
| 2026-05-04 16:31 | 59.81667 | 18.24155 | 3672 ft | 164 kts | 272° |
| 2026-05-04 16:32 | 59.81967 | 18.17405 | 3069 ft | 164 kts | 272° |
| 2026-05-04 16:33 | 59.82166 | 18.12892 | 2709 ft | 162 kts | 272° |
| 2026-05-04 16:33 | 59.82367 | 18.08448 | 2491 ft | 157 kts | 272° |
| 2026-05-04 16:34 | 59.82377 | 18.04319 | 2452 ft | 145 kts | 250° |
| 2026-05-04 16:34 | 59.81827 | 18.02672 | 2459 ft | 146 kts | 225° |
| 2026-05-04 16:35 | 59.78787 | 18.00955 | 2445 ft | 156 kts | 198° |
| 2026-05-04 16:35 | 59.75597 | 17.99792 | 2307 ft | 153 kts | 198° |
| 2026-05-04 16:36 | 59.74554 | 17.99411 | 2127 ft | 152 kts | 198° |
| 2026-05-04 16:36 | 59.72453 | 17.98643 | 1717 ft | 155 kts | 198° |
| 2026-05-04 16:37 | 59.70735 | 17.98020 | 1361 ft | 148 kts | 198° |
| 2026-05-04 16:37 | 59.69727 | 17.97668 | 1114 ft | 145 kts | 197° |
| 2026-05-04 16:37 | 59.67810 | 17.96970 | 756 ft | 137 kts | 199° |
| 2026-05-04 16:38 | 59.65948 | 17.96287 | 371 ft | 137 kts | 198° |
| 2026-05-04 16:39 | 59.63508 | 17.95391 | 121 ft | 45 kts | 195° |
| 2026-05-04 16:39 | 59.63290 | 17.94914 | 121 ft | 17 kts | 352° |
| 2026-05-04 16:40 | 59.63538 | 17.94993 | 116 ft | 19 kts | 11° |
| 2026-05-04 16:40 | 59.63829 | 17.95104 | 110 ft | 24 kts | 9° |
| 2026-05-04 16:41 | 59.64174 | 17.95232 | 106 ft | 23 kts | 10° |
| 2026-05-04 16:41 | 59.64292 | 17.95247 | 106 ft | 6 kts | 1° |
| 2026-05-04 16:42 | 59.64401 | 17.94829 | 103 ft | 18 kts | 259° |
| 2026-05-04 16:43 | 59.64284 | 17.94408 | 103 ft | 19 kts | 236° |
| 2026-05-04 16:43 | 59.64147 | 17.93967 | 108 ft | 18 kts | 240° |
| 2026-05-04 16:43 | 59.64081 | 17.93762 | 111 ft | 20 kts | 236° |
| 2026-05-04 16:44 | 59.64242 | 17.92335 | 114 ft | 28 kts | 299° |
| 2026-05-04 16:45 | 59.64521 | 17.91966 | 110 ft | 29 kts | 9° |
| 2026-05-04 16:46 | 59.64663 | 17.92392 | 112 ft | 20 kts | 104° |
| 2026-05-04 16:46 | 59.64648 | 17.92758 | 112 ft | 10 kts | 20° |
| 2026-05-04 16:47 | 59.64675 | 17.92780 | 112 ft | 0 kts | 21° |